Ithaca, NE (68033)

5:13 PM CDT on August 29, 2015 (GMT -0500)
UNL Research Feedlot Ithaca NE | | Change Station
CLOSE
Current Station
Personal Weather Station
Location: Ithaca, NE
Elevation: 1145 ft
Nearby Weather Stations

Elev 1145 ft 41.14 °N, 96.48 °W | Updated 3 minutes ago

Clear
Clear
70.9 °F
Feels Like 70 °F
N
4.0
Wind Variable Wind from East
Gusts 7.0 mph

Today
High -- | Low -- °F
--% Chance of Precip.
Yesterday
High -- | Low -- °F
Precip. -- in
6:49 AM 8:04 PM
Full, 100% visible
Pressure 30.05 in
Visibility 10.0 miles
Clouds Scattered Clouds 1700 ft
Heat Index 70 °F
Dew Point 66 °F
Humidity 84%
Rainfall 0.00 in
Snow Depth Not available.
UV 3 out of 12
Pollen 9.70 out of 12
Air Quality Not available.
Flu Activity Not available.
METAR KAHQ 292155Z AUTO 13003KT 10SM SCT017 22/18 A3005 RMK AO2 T02220177
Pressure 30.05 in
Visibility 10.0 miles
Clouds Scattered Clouds 1700 ft
Heat Index 70 °F
Dew Point 66 °F
Humidity 84%
Rainfall 0.00 in
Snow Depth Not available.
UV 3 out of 12
Pollen 9.70 out of 12
Air Quality Not available.
Flu Activity Not available.
METAR KAHQ 292155Z AUTO 13003KT 10SM SCT017 22/18 A3005 RMK AO2 T02220177

10-Day Weather Forecast

×

Almanac

Astronomy

Aug. 29, 2015 Rise Set
Actual Time
Civil Twilight
Nautical Twilight
Astronomical Twilight
Moon
Length of Visible Light
Length of Day
Tomorrow will be .
, % of the Moon is Illuminated

Today's Extremes

State Highs State Lows

Community

WunderPhotos

Upload Photos

1,850,786 photos uploaded!

WunderBlogs® & News

Nearby

Air Quality

  Air Quality AQ Index Pollutant
Not available.

Snow Depth

Station Depth Elevation

Earthquake Activity

City Distance Mag. Time & Date
Minimum magnitude displayed is 2.5.

Coastal Water Temperatures

Place Temperature

Stations

Nearby Weather Stations

Station Location Temp. Windchill Dew Point Humidity Wind Precip. Elev Updated Type